createdAt,value
2017-07-22T20:50:58.618Z,22.5
2017-07-22T20:52:00.009Z,22.5
2017-07-22T20:53:01.419Z,22.5
2017-07-22T20:54:02.825Z,22.5
2017-07-22T20:55:04.268Z,22.5
2017-07-22T20:56:05.804Z,22.4
2017-07-22T20:57:07.211Z,22.4
2017-07-22T20:58:08.627Z,22.3
2017-07-22T20:59:10.033Z,22.3
2017-07-22T21:00:11.454Z,22.3
2017-07-22T21:01:12.876Z,22.2
2017-07-22T21:02:14.281Z,22.1
2017-07-22T21:03:15.695Z,22.2
2017-07-22T21:04:17.168Z,22.1
2017-07-22T21:05:18.656Z,22.0
2017-07-22T21:06:20.091Z,22.0
2017-07-22T21:07:21.500Z,22.0
2017-07-22T21:08:22.910Z,22.0
2017-07-22T21:09:24.318Z,21.9
2017-07-22T21:10:25.727Z,21.9
2017-07-22T21:11:27.141Z,21.8
2017-07-22T21:12:28.560Z,21.8
2017-07-22T21:13:29.966Z,21.6
2017-07-22T21:14:31.372Z,21.5
2017-07-22T21:15:32.783Z,21.4
2017-07-22T21:16:34.193Z,21.5
2017-07-22T21:17:35.610Z,21.4
2017-07-22T21:18:37.021Z,21.3
2017-07-22T21:19:38.431Z,21.3
2017-07-22T21:20:39.845Z,21.2
2017-07-22T21:21:41.261Z,21.1
2017-07-22T21:22:42.769Z,21.0
2017-07-22T21:23:44.177Z,21.0
2017-07-22T21:24:45.602Z,21.0
2017-07-22T21:25:47.010Z,21.0
2017-07-22T21:26:48.442Z,20.9
2017-07-22T21:27:49.847Z,21.0
2017-07-22T21:28:51.257Z,21.1
2017-07-22T21:29:52.812Z,21.1
2017-07-22T21:30:54.223Z,21.1
2017-07-22T21:31:55.636Z,21.2
2017-07-22T21:32:57.055Z,21.2
2017-07-22T21:33:58.470Z,21.2
2017-07-22T21:34:59.880Z,21.2
2017-07-22T21:36:01.290Z,21.2
2017-07-22T21:37:02.704Z,21.3
2017-07-22T21:38:04.109Z,21.3
2017-07-22T21:39:05.516Z,21.3
2017-07-22T21:40:06.940Z,21.3
2017-07-22T21:41:08.350Z,21.3
2017-07-22T21:42:09.776Z,21.2
2017-07-22T21:43:11.176Z,21.3
2017-07-22T21:44:12.589Z,21.3
2017-07-22T21:45:13.999Z,21.3
2017-07-22T21:46:15.432Z,21.3
2017-07-22T21:47:16.841Z,21.3
2017-07-22T21:48:18.255Z,21.3
2017-07-22T21:49:20.713Z,21.4
2017-07-22T21:50:23.009Z,21.4
2017-07-22T21:51:25.546Z,21.3
2017-07-22T21:52:27.992Z,21.3
2017-07-22T21:53:31.142Z,21.3
2017-07-22T21:54:32.570Z,21.3
2017-07-22T21:55:33.986Z,21.2
2017-07-22T21:56:35.395Z,21.1
2017-07-22T21:57:36.802Z,21.0
2017-07-22T21:58:40.089Z,21.0
2017-07-22T21:59:41.507Z,20.9
2017-07-22T22:00:42.923Z,20.9
2017-07-22T22:01:44.336Z,20.9
2017-07-22T22:02:47.555Z,20.8
2017-07-22T22:03:48.969Z,20.8
2017-07-22T22:04:50.388Z,20.8
2017-07-22T22:05:51.794Z,20.8
2017-07-22T22:06:53.271Z,20.8
2017-07-22T22:07:54.688Z,20.8
2017-07-22T22:08:56.098Z,20.7
2017-07-22T22:09:57.517Z,20.7
2017-07-22T22:10:58.922Z,20.7
2017-07-22T22:12:00.337Z,20.8
2017-07-22T22:13:01.784Z,20.7
2017-07-22T22:14:04.246Z,20.7
2017-07-22T22:15:05.677Z,20.7
2017-07-22T22:16:07.122Z,20.7
2017-07-22T22:17:08.543Z,20.7
2017-07-22T22:18:09.956Z,20.7
2017-07-22T22:19:13.067Z,20.7
2017-07-22T22:20:14.493Z,20.7
2017-07-22T22:21:15.939Z,20.8
2017-07-22T22:22:17.383Z,20.8
2017-07-22T22:23:18.800Z,20.8
2017-07-22T22:24:20.250Z,20.7
2017-07-22T22:25:21.761Z,20.7
2017-07-22T22:26:23.216Z,20.6
2017-07-22T22:27:27.839Z,20.6
2017-07-22T22:28:29.338Z,20.5
2017-07-22T22:29:30.913Z,20.5
2017-07-22T22:30:32.468Z,20.5
2017-07-22T22:31:33.959Z,20.5
2017-07-22T22:32:35.502Z,20.5
2017-07-22T22:33:37.086Z,20.5
2017-07-22T22:34:38.571Z,20.4
2017-07-22T22:35:42.076Z,20.3
2017-07-22T22:36:43.514Z,20.3
2017-07-22T22:37:46.003Z,20.3
2017-07-22T22:38:48.886Z,20.2
2017-07-22T22:39:50.324Z,20.2
2017-07-22T22:40:51.756Z,20.2
2017-07-22T22:41:53.225Z,20.1
2017-07-22T22:42:54.728Z,20.1
2017-07-22T22:43:56.247Z,20.0
2017-07-22T22:44:57.744Z,20.0
2017-07-22T22:46:00.316Z,20.0
2017-07-22T22:47:01.851Z,20.1
2017-07-22T22:48:04.460Z,20.2
2017-07-22T22:49:07.449Z,20.2
2017-07-22T22:50:10.418Z,20.3
2017-07-22T22:51:11.976Z,20.4
2017-07-22T22:52:13.566Z,20.4
2017-07-22T22:53:15.145Z,20.4
2017-07-22T22:54:18.805Z,20.5
2017-07-22T22:55:21.471Z,20.5
2017-07-22T22:56:23.063Z,20.4
2017-07-22T22:57:25.739Z,20.5
2017-07-22T22:58:28.750Z,20.5
2017-07-22T22:59:31.461Z,20.5
2017-07-22T23:00:33.075Z,20.5
2017-07-22T23:01:35.717Z,20.5
2017-07-22T23:02:37.380Z,20.5
2017-07-22T23:03:40.069Z,20.5
2017-07-22T23:04:41.688Z,20.4
2017-07-22T23:05:44.770Z,20.5
2017-07-22T23:06:46.493Z,20.5
2017-07-22T23:07:49.170Z,20.5
2017-07-22T23:08:50.725Z,20.5
2017-07-22T23:09:52.370Z,20.5
2017-07-22T23:10:53.966Z,20.6
2017-07-22T23:11:56.790Z,20.5
2017-07-22T23:13:00.360Z,20.5
2017-07-22T23:14:01.907Z,20.5
2017-07-22T23:15:04.604Z,20.4
2017-07-22T23:16:07.347Z,20.5
2017-07-22T23:17:09.009Z,20.5
2017-07-22T23:18:12.096Z,20.6
2017-07-22T23:19:13.684Z,20.6
2017-07-22T23:20:16.430Z,20.6
2017-07-22T23:21:18.109Z,20.6
2017-07-22T23:22:19.716Z,20.6
2017-07-22T23:23:22.378Z,20.5
2017-07-22T23:24:25.071Z,20.6
2017-07-22T23:25:26.693Z,20.7
2017-07-22T23:26:28.297Z,20.7
2017-07-22T23:27:29.870Z,20.8
2017-07-22T23:28:31.471Z,20.6
2017-07-22T23:29:33.070Z,20.7
2017-07-22T23:30:34.644Z,20.7
2017-07-22T23:31:36.267Z,20.7
2017-07-22T23:32:37.905Z,20.7
2017-07-22T23:33:40.669Z,20.8
2017-07-22T23:34:43.370Z,20.7
2017-07-22T23:35:44.939Z,20.6
2017-07-22T23:36:46.629Z,20.6
2017-07-22T23:37:48.204Z,20.6
2017-07-22T23:38:49.813Z,20.6
2017-07-22T23:39:52.534Z,20.7
2017-07-22T23:40:55.326Z,20.7
2017-07-22T23:41:56.925Z,20.8
2017-07-22T23:42:58.497Z,20.8
2017-07-22T23:44:00.052Z,20.7
2017-07-22T23:45:01.633Z,20.7
2017-07-22T23:46:03.202Z,20.7
2017-07-22T23:47:04.808Z,20.7
2017-07-22T23:48:06.397Z,20.6
2017-07-22T23:49:09.067Z,20.6
2017-07-22T23:50:10.615Z,20.6
2017-07-22T23:51:12.209Z,20.6
2017-07-22T23:52:15.228Z,20.6
2017-07-22T23:53:18.069Z,20.7
2017-07-22T23:54:19.702Z,20.7
2017-07-22T23:55:22.452Z,20.7
2017-07-22T23:56:25.143Z,20.6
2017-07-22T23:57:26.692Z,20.7
2017-07-22T23:58:29.336Z,20.6
2017-07-22T23:59:31.975Z,20.6
